Аэропорт: Элиста. Элиста

ICAO: URWI

METAR:
2019/01/21 22:30
URWI 212230Z AUTO 21006MPS 6000 // ///043/// 01/01 Q1013
METAR:
2018/07/15 12:12
TAF TAF URWI 151100Z 1512/1524 29003G08MPS 9999 SCT030CB 
      TEMPO 1512/1524 VRB08G15MPS 3100 -TSRAGR SCT011 BKN020CB